sensor_id;sensor_type;location;lat;lon;timestamp;pressure;altitude;pressure_sealevel;temperature;humidity
16255;BME280;8235;52.198;9.904;2023-02-12T00:02:18;102815.19;;;7.82;100.00
16255;BME280;8235;52.198;9.904;2023-02-12T00:04:46;102825.81;;;7.80;100.00
16255;BME280;8235;52.198;9.904;2023-02-12T00:07:13;102828.47;;;7.80;100.00
16255;BME280;8235;52.198;9.904;2023-02-12T00:09:39;102828.47;;;7.80;100.00
16255;BME280;8235;52.198;9.904;2023-02-12T00:12:06;102835.56;;;7.80;100.00
16255;BME280;8235;52.198;9.904;2023-02-12T00:14:32;102842.59;;;7.81;100.00
16255;BME280;8235;52.198;9.904;2023-02-12T00:16:59;102832.91;;;7.80;100.00
16255;BME280;8235;52.198;9.904;2023-02-12T00:19:26;102832.91;;;7.80;100.00
16255;BME280;8235;52.198;9.904;2023-02-12T00:21:54;102824.94;;;7.80;100.00
16255;BME280;8235;52.198;9.904;2023-02-12T00:24:20;102825.84;;;7.79;100.00
16255;BME280;8235;52.198;9.904;2023-02-12T00:26:46;102832.91;;;7.80;100.00
16255;BME280;8235;52.198;9.904;2023-02-12T00:29:15;102847.94;;;7.79;100.00
16255;BME280;8235;52.198;9.904;2023-02-12T00:31:41;102847.94;;;7.79;100.00
16255;BME280;8235;52.198;9.904;2023-02-12T00:34:12;102843.50;;;7.80;100.00
16255;BME280;8235;52.198;9.904;2023-02-12T00:36:41;102842.63;;;7.79;100.00
16255;BME280;8235;52.198;9.904;2023-02-12T00:39:09;102838.19;;;7.80;100.00
16255;BME280;8235;52.198;9.904;2023-02-12T00:41:36;102839.97;;;7.79;100.00
16255;BME280;8235;52.198;9.904;2023-02-12T00:44:03;102836.44;;;7.79;100.00
16255;BME280;8235;52.198;9.904;2023-02-12T00:46:30;102840.00;;;7.78;100.00
16255;BME280;8235;52.198;9.904;2023-02-12T00:48:56;102844.41;;;7.79;100.00
16255;BME280;8235;52.198;9.904;2023-02-12T00:51:23;102848.81;;;7.80;100.00
16255;BME280;8235;52.198;9.904;2023-02-12T00:53:49;102846.16;;;7.80;100.00
16255;BME280;8235;52.198;9.904;2023-02-12T00:56:17;102846.16;;;7.80;100.00
16255;BME280;8235;52.198;9.904;2023-02-12T00:58:43;102844.44;;;7.77;100.00
16255;BME280;8235;52.198;9.904;2023-02-12T01:01:10;102853.28;;;7.76;100.00
16255;BME280;8235;52.198;9.904;2023-02-12T01:03:36;102854.16;;;7.77;100.00
16255;BME280;8235;52.198;9.904;2023-02-12T01:06:03;102849.75;;;7.76;100.00
16255;BME280;8235;52.198;9.904;2023-02-12T01:08:31;102855.94;;;7.76;100.00
16255;BME280;8235;52.198;9.904;2023-02-12T01:10:59;102847.97;;;7.76;100.00
16255;BME280;8235;52.198;9.904;2023-02-12T01:13:28;102857.72;;;7.76;100.00
16255;BME280;8235;52.198;9.904;2023-02-12T01:16:04;102861.28;;;7.75;100.00
16255;BME280;8235;52.198;9.904;2023-02-12T01:18:33;102853.31;;;7.75;100.00
16255;BME280;8235;52.198;9.904;2023-02-12T01:21:00;102865.69;;;7.74;100.00
16255;BME280;8235;52.198;9.904;2023-02-12T01:23:26;102868.31;;;7.76;100.00
16255;BME280;8235;52.198;9.904;2023-02-12T01:25:53;102861.25;;;7.76;100.00
16255;BME280;8235;52.198;9.904;2023-02-12T01:28:19;102864.78;;;7.77;100.00
16255;BME280;8235;52.198;9.904;2023-02-12T01:30:47;102862.16;;;7.75;100.00
16255;BME280;8235;52.198;9.904;2023-02-12T01:33:14;102861.28;;;7.75;100.00
16255;BME280;8235;52.198;9.904;2023-02-12T01:35:40;102863.91;;;7.75;100.00
16255;BME280;8235;52.198;9.904;2023-02-12T01:38:06;102855.97;;;7.73;100.00
16255;BME280;8235;52.198;9.904;2023-02-12T01:40:33;102857.75;;;7.73;100.00
16255;BME280;8235;52.198;9.904;2023-02-12T01:43:02;102858.66;;;7.72;100.00
16255;BME280;8235;52.198;9.904;2023-02-12T01:45:43;102863.97;;;7.72;100.00
16255;BME280;8235;52.198;9.904;2023-02-12T01:48:13;102856.88;;;7.72;100.00
16255;BME280;8235;52.198;9.904;2023-02-12T01:50:43;102869.25;;;7.73;100.00
16255;BME280;8235;52.198;9.904;2023-02-12T01:53:10;102858.66;;;7.72;100.00
16255;BME280;8235;52.198;9.904;2023-02-12T01:55:45;102863.06;;;7.73;100.00
16255;BME280;8235;52.198;9.904;2023-02-12T01:58:12;102861.31;;;7.72;100.00
16255;BME280;8235;52.198;9.904;2023-02-12T02:00:38;102868.41;;;7.71;100.00
16255;BME280;8235;52.198;9.904;2023-02-12T02:03:05;102868.44;;;7.70;100.00
16255;BME280;8235;52.198;9.904;2023-02-12T02:05:40;102863.16;;;7.70;100.00
16255;BME280;8235;52.198;9.904;2023-02-12T02:08:19;102865.78;;;7.70;100.00
16255;BME280;8235;52.198;9.904;2023-02-12T02:10:46;102859.63;;;7.69;100.00
16255;BME280;8235;52.198;9.904;2023-02-12T02:13:13;102856.09;;;7.67;100.00
16255;BME280;8235;52.198;9.904;2023-02-12T02:15:59;102861.44;;;7.65;100.00
16255;BME280;8235;52.198;9.904;2023-02-12T02:18:34;102861.44;;;7.64;100.00
16255;BME280;8235;52.198;9.904;2023-02-12T02:21:18;102865.84;;;7.65;100.00
16255;BME280;8235;52.198;9.904;2023-02-12T02:24:03;102864.13;;;7.62;100.00
16255;BME280;8235;52.198;9.904;2023-02-12T02:30:15;102870.34;;;7.61;100.00
16255;BME280;8235;52.198;9.904;2023-02-12T02:32:49;102861.53;;;7.59;100.00
16255;BME280;8235;52.198;9.904;2023-02-12T02:35:25;102858.88;;;7.59;100.00
16255;BME280;8235;52.198;9.904;2023-02-12T02:38:02;102863.31;;;7.57;100.00
16255;BME280;8235;52.198;9.904;2023-02-12T02:40:36;102856.25;;;7.56;100.00
16255;BME280;8235;52.198;9.904;2023-02-12T02:43:08;102864.22;;;7.56;100.00
16255;BME280;8235;52.198;9.904;2023-02-12T02:45:40;102858.06;;;7.54;100.00
16255;BME280;8235;52.198;9.904;2023-02-12T02:48:11;102856.31;;;7.53;100.00
16255;BME280;8235;52.198;9.904;2023-02-12T02:50:41;102855.47;;;7.51;100.00
16255;BME280;8235;52.198;9.904;2023-02-12T02:53:11;102859.03;;;7.50;100.00
16255;BME280;8235;52.198;9.904;2023-02-12T02:55:42;102866.97;;;7.50;100.00
16255;BME280;8235;52.198;9.904;2023-02-12T02:58:12;102866.97;;;7.50;100.00
16255;BME280;8235;52.198;9.904;2023-02-12T03:00:44;102867.88;;;7.49;100.00
16255;BME280;8235;52.198;9.904;2023-02-12T03:03:19;102872.31;;;7.49;100.00
16255;BME280;8235;52.198;9.904;2023-02-12T03:05:50;102859.06;;;7.47;100.00
16255;BME280;8235;52.198;9.904;2023-02-12T03:08:20;102868.78;;;7.48;100.00
16255;BME280;8235;52.198;9.904;2023-02-12T03:10:52;102867.91;;;7.46;100.00
16255;BME280;8235;52.198;9.904;2023-02-12T03:13:23;102872.38;;;7.44;100.00
16255;BME280;8235;52.198;9.904;2023-02-12T03:15:58;102868.84;;;7.44;100.00
16255;BME280;8235;52.198;9.904;2023-02-12T03:18:29;102874.16;;;7.42;100.00
16255;BME280;8235;52.198;9.904;2023-02-12T03:21:00;102880.34;;;7.41;100.00
16255;BME280;8235;52.198;9.904;2023-02-12T03:23:31;102879.50;;;7.39;100.00
16255;BME280;8235;52.198;9.904;2023-02-12T03:26:04;102877.72;;;7.40;100.00
16255;BME280;8235;52.198;9.904;2023-02-12T03:28:32;102885.69;;;7.38;100.00
16255;BME280;8235;52.198;9.904;2023-02-12T03:31:13;102880.41;;;7.37;100.00
16255;BME280;8235;52.198;9.904;2023-02-12T03:33:51;102879.53;;;7.36;100.00
16255;BME280;8235;52.198;9.904;2023-02-12T03:36:28;102884.84;;;7.36;100.00
16255;BME280;8235;52.198;9.904;2023-02-12T03:39:02;102883.09;;;7.35;100.00
16255;BME280;8235;52.198;9.904;2023-02-12T03:41:39;102892.81;;;7.35;100.00
16255;BME280;8235;52.198;9.904;2023-02-12T03:44:10;102895.50;;;7.33;100.00
16255;BME280;8235;52.198;9.904;2023-02-12T03:46:49;102895.53;;;7.31;100.00
16255;BME280;8235;52.198;9.904;2023-02-12T03:49:22;102894.66;;;7.31;100.00
16255;BME280;8235;52.198;9.904;2023-02-12T03:51:52;102906.16;;;7.30;100.00
16255;BME280;8235;52.198;9.904;2023-02-12T03:54:20;102899.13;;;7.27;100.00
16255;BME280;8235;52.198;9.904;2023-02-12T03:56:50;102900.91;;;7.27;100.00
16255;BME280;8235;52.198;9.904;2023-02-12T03:59:17;102909.75;;;7.26;100.00
16255;BME280;8235;52.198;9.904;2023-02-12T04:01:46;102908.88;;;7.24;100.00
16255;BME280;8235;52.198;9.904;2023-02-12T04:04:14;102909.78;;;7.21;100.00
16255;BME280;8235;52.198;9.904;2023-02-12T04:06:41;102908.91;;;7.21;100.00
16255;BME280;8235;52.198;9.904;2023-02-12T04:09:08;102910.69;;;7.20;100.00
16255;BME280;8235;52.198;9.904;2023-02-12T04:11:46;102915.13;;;7.20;100.00
16255;BME280;8235;52.198;9.904;2023-02-12T04:14:21;102923.06;;;7.20;100.00
16255;BME280;8235;52.198;9.904;2023-02-12T04:16:57;102927.47;;;7.19;100.00
16255;BME280;8235;52.198;9.904;2023-02-12T04:19:34;102933.69;;;7.18;100.00
16255;BME280;8235;52.198;9.904;2023-02-12T04:22:14;102934.56;;;7.19;100.00
16255;BME280;8235;52.198;9.904;2023-02-12T04:24:49;102931.03;;;7.18;100.00
16255;BME280;8235;52.198;9.904;2023-02-12T04:27:20;102932.81;;;7.18;100.00
16255;BME280;8235;52.198;9.904;2023-02-12T04:29:52;102930.22;;;7.15;100.00
16255;BME280;8235;52.198;9.904;2023-02-12T04:32:25;102934.66;;;7.13;100.00
16255;BME280;8235;52.198;9.904;2023-02-12T04:34:57;102941.72;;;7.12;100.00
16255;BME280;8235;52.198;9.904;2023-02-12T04:37:32;102943.50;;;7.12;100.00
16255;BME280;8235;52.198;9.904;2023-02-12T04:40:03;102950.56;;;7.11;100.00
16255;BME280;8235;52.198;9.904;2023-02-12T04:42:29;102947.94;;;7.10;100.00
16255;BME280;8235;52.198;9.904;2023-02-12T04:44:56;102950.59;;;7.10;100.00
16255;BME280;8235;52.198;9.904;2023-02-12T04:47:24;102949.72;;;7.09;100.00
16255;BME280;8235;52.198;9.904;2023-02-12T04:49:51;102955.03;;;7.08;100.00
16255;BME280;8235;52.198;9.904;2023-02-12T04:52:17;102955.91;;;7.07;100.00
16255;BME280;8235;52.198;9.904;2023-02-12T04:54:44;102958.59;;;7.05;100.00
16255;BME280;8235;52.198;9.904;2023-02-12T04:57:10;102967.41;;;7.06;100.00
16255;BME280;8235;52.198;9.904;2023-02-12T04:59:37;102967.41;;;7.06;100.00
16255;BME280;8235;52.198;9.904;2023-02-12T05:02:03;102967.41;;;7.06;100.00
16255;BME280;8235;52.198;9.904;2023-02-12T05:04:31;102969.19;;;7.05;100.00
16255;BME280;8235;52.198;9.904;2023-02-12T05:06:57;102963.88;;;7.05;100.00
16255;BME280;8235;52.198;9.904;2023-02-12T05:09:24;102963.91;;;7.04;100.00
16255;BME280;8235;52.198;9.904;2023-02-12T05:11:50;102958.59;;;7.04;100.00
16255;BME280;8235;52.198;9.904;2023-02-12T05:14:17;102958.59;;;7.04;100.00
16255;BME280;8235;52.198;9.904;2023-02-12T05:16:43;102964.78;;;7.03;100.00
16255;BME280;8235;52.198;9.904;2023-02-12T05:19:10;102964.78;;;7.03;100.00
16255;BME280;8235;52.198;9.904;2023-02-12T05:21:38;102959.50;;;7.03;100.00
16255;BME280;8235;52.198;9.904;2023-02-12T05:24:05;102955.09;;;7.02;100.00
16255;BME280;8235;52.198;9.904;2023-02-12T05:26:31;102955.97;;;7.01;100.00
16255;BME280;8235;52.198;9.904;2023-02-12T05:28:58;102958.63;;;7.01;100.00
16255;BME280;8235;52.198;9.904;2023-02-12T05:31:24;102955.97;;;7.01;100.00
16255;BME280;8235;52.198;9.904;2023-02-12T05:33:51;102954.22;;;7.00;100.00
16255;BME280;8235;52.198;9.904;2023-02-12T05:36:20;102963.94;;;7.01;100.00
16255;BME280;8235;52.198;9.904;2023-02-12T05:38:48;102964.81;;;7.01;100.00
16255;BME280;8235;52.198;9.904;2023-02-12T05:41:16;102960.41;;;7.00;100.00
16255;BME280;8235;52.198;9.904;2023-02-12T05:43:43;102954.22;;;7.01;100.00
16255;BME280;8235;52.198;9.904;2023-02-12T05:46:10;102958.63;;;7.01;100.00
16255;BME280;8235;52.198;9.904;2023-02-12T05:48:38;102962.16;;;7.01;100.00
16255;BME280;8235;52.198;9.904;2023-02-12T05:51:07;102962.16;;;7.01;100.00
16255;BME280;8235;52.198;9.904;2023-02-12T05:53:34;102961.28;;;7.01;100.00
16255;BME280;8235;52.198;9.904;2023-02-12T05:56:13;102963.94;;;7.01;100.00
16255;BME280;8235;52.198;9.904;2023-02-12T05:58:42;102968.34;;;7.02;100.00
16255;BME280;8235;52.198;9.904;2023-02-12T06:01:11;102969.22;;;7.01;100.00
16255;BME280;8235;52.198;9.904;2023-02-12T06:03:38;102971.91;;;6.99;100.00
16255;BME280;8235;52.198;9.904;2023-02-12T06:06:05;102975.41;;;7.00;100.00
16255;BME280;8235;52.198;9.904;2023-02-12T06:08:31;102967.53;;;6.98;100.00
16255;BME280;8235;52.198;9.904;2023-02-12T06:10:59;102975.47;;;6.96;100.00
16255;BME280;8235;52.198;9.904;2023-02-12T06:13:28;102973.72;;;6.95;100.00
16255;BME280;8235;52.198;9.904;2023-02-12T06:15:54;102968.44;;;6.94;100.00
16255;BME280;8235;52.198;9.904;2023-02-12T06:18:21;102971.97;;;6.94;100.00
16255;BME280;8235;52.198;9.904;2023-02-12T06:20:48;102965.78;;;6.94;100.00
16255;BME280;8235;52.198;9.904;2023-02-12T06:23:14;102964.03;;;6.93;100.00
16255;BME280;8235;52.198;9.904;2023-02-12T06:25:41;102962.28;;;6.92;100.00
16255;BME280;8235;52.198;9.904;2023-02-12T06:28:07;102969.34;;;6.91;100.00
16255;BME280;8235;52.198;9.904;2023-02-12T06:30:35;102964.03;;;6.93;100.00
16255;BME280;8235;52.198;9.904;2023-02-12T06:33:02;102971.97;;;6.94;100.00
16255;BME280;8235;52.198;9.904;2023-02-12T06:35:28;102966.69;;;6.93;100.00
16255;BME280;8235;52.198;9.904;2023-02-12T06:37:55;102971.09;;;6.92;100.00
16255;BME280;8235;52.198;9.904;2023-02-12T06:40:21;102973.75;;;6.92;100.00
16255;BME280;8235;52.198;9.904;2023-02-12T06:42:47;102968.47;;;6.92;100.00
16255;BME280;8235;52.198;9.904;2023-02-12T06:45:14;102980.81;;;6.93;100.00
16255;BME280;8235;52.198;9.904;2023-02-12T06:47:42;102979.91;;;6.94;100.00
16255;BME280;8235;52.198;9.904;2023-02-12T06:50:09;102980.81;;;6.93;100.00
16255;BME280;8235;52.198;9.904;2023-02-12T06:52:36;102981.69;;;6.92;100.00
16255;BME280;8235;52.198;9.904;2023-02-12T06:55:02;102988.78;;;6.92;100.00
16255;BME280;8235;52.198;9.904;2023-02-12T06:57:29;102989.66;;;6.92;100.00
16255;BME280;8235;52.198;9.904;2023-02-12T06:59:56;102985.22;;;6.93;100.00
16255;BME280;8235;52.198;9.904;2023-02-12T07:02:22;102991.41;;;6.93;100.00
16255;BME280;8235;52.198;9.904;2023-02-12T07:04:50;102994.06;;;6.93;100.00
16255;BME280;8235;52.198;9.904;2023-02-12T07:07:16;103001.13;;;6.93;100.00
16255;BME280;8235;52.198;9.904;2023-02-12T07:09:43;103006.44;;;6.91;100.00
16255;BME280;8235;52.198;9.904;2023-02-12T07:12:09;103010.84;;;6.92;100.00
16255;BME280;8235;52.198;9.904;2023-02-12T07:14:36;103024.09;;;6.91;100.00
16255;BME280;8235;52.198;9.904;2023-02-12T07:17:02;103022.34;;;6.91;100.00
16255;BME280;8235;52.198;9.904;2023-02-12T07:19:32;103018.78;;;6.92;100.00
16255;BME280;8235;52.198;9.904;2023-02-12T07:22:00;103024.09;;;6.92;100.00
16255;BME280;8235;52.198;9.904;2023-02-12T07:24:27;103025.84;;;6.93;100.00
16255;BME280;8235;52.198;9.904;2023-02-12T07:26:54;103016.13;;;6.92;100.00
16255;BME280;8235;52.198;9.904;2023-02-12T07:29:20;103022.31;;;6.94;100.00
16255;BME280;8235;52.198;9.904;2023-02-12T07:31:47;103019.66;;;6.94;100.00
16255;BME280;8235;52.198;9.904;2023-02-12T07:34:13;103038.19;;;6.96;100.00
16255;BME280;8235;52.198;9.904;2023-02-12T07:36:40;103036.41;;;6.96;100.00
16255;BME280;8235;52.198;9.904;2023-02-12T07:39:10;103033.75;;;6.98;100.00
16255;BME280;8235;52.198;9.904;2023-02-12T07:41:36;103030.22;;;6.97;100.00
16255;BME280;8235;52.198;9.904;2023-02-12T07:44:05;103028.41;;;7.00;100.00
16255;BME280;8235;52.198;9.904;2023-02-12T07:46:34;103028.41;;;7.01;100.00
16255;BME280;8235;52.198;9.904;2023-02-12T07:49:02;103025.72;;;7.03;100.00
16255;BME280;8235;52.198;9.904;2023-02-12T07:51:30;103035.44;;;7.05;100.00
16255;BME280;8235;52.198;9.904;2023-02-12T07:53:58;103031.00;;;7.06;100.00
16255;BME280;8235;52.198;9.904;2023-02-12T07:56:28;103035.41;;;7.07;100.00
16255;BME280;8235;52.198;9.904;2023-02-12T07:58:57;103035.41;;;7.08;100.00
16255;BME280;8235;52.198;9.904;2023-02-12T08:01:26;103036.28;;;7.09;100.00
16255;BME280;8235;52.198;9.904;2023-02-12T08:03:53;103045.97;;;7.13;100.00
16255;BME280;8235;52.198;9.904;2023-02-12T08:06:24;103047.72;;;7.14;100.00
16255;BME280;8235;52.198;9.904;2023-02-12T08:08:52;103037.97;;;7.16;100.00
16255;BME280;8235;52.198;9.904;2023-02-12T08:11:20;103037.97;;;7.16;100.00
16255;BME280;8235;52.198;9.904;2023-02-12T08:13:48;103035.28;;;7.17;100.00
16255;BME280;8235;52.198;9.904;2023-02-12T08:16:17;103039.66;;;7.20;100.00
16255;BME280;8235;52.198;9.904;2023-02-12T08:18:44;103040.56;;;7.20;100.00
16255;BME280;8235;52.198;9.904;2023-02-12T08:21:12;103032.59;;;7.22;100.00
16255;BME280;8235;52.198;9.904;2023-02-12T08:23:40;103039.63;;;7.26;100.00
16255;BME280;8235;52.198;9.904;2023-02-12T08:26:08;103046.66;;;7.28;100.00
16255;BME280;8235;52.198;9.904;2023-02-12T08:28:36;103048.38;;;7.32;100.00
16255;BME280;8235;52.198;9.904;2023-02-12T08:31:07;103044.78;;;7.35;100.00
16255;BME280;8235;52.198;9.904;2023-02-12T08:33:34;103045.66;;;7.37;100.00
16255;BME280;8235;52.198;9.904;2023-02-12T08:36:02;103045.63;;;7.39;100.00
16255;BME280;8235;52.198;9.904;2023-02-12T08:38:30;103059.75;;;7.42;100.00
16255;BME280;8235;52.198;9.904;2023-02-12T08:40:59;103059.75;;;7.42;100.00
16255;BME280;8235;52.198;9.904;2023-02-12T08:43:26;103063.25;;;7.44;100.00
16255;BME280;8235;52.198;9.904;2023-02-12T08:45:52;103064.13;;;7.46;100.00
16255;BME280;8235;52.198;9.904;2023-02-12T08:48:23;103069.44;;;7.46;100.00
16255;BME280;8235;52.198;9.904;2023-02-12T08:50:49;103069.41;;;7.48;100.00
16255;BME280;8235;52.198;9.904;2023-02-12T08:53:16;103076.47;;;7.49;100.00
16255;BME280;8235;52.198;9.904;2023-02-12T08:55:47;103072.94;;;7.50;100.00
16255;BME280;8235;52.198;9.904;2023-02-12T08:58:13;103071.13;;;7.52;100.00
16255;BME280;8235;52.198;9.904;2023-02-12T09:00:40;103074.63;;;7.54;100.00
16255;BME280;8235;52.198;9.904;2023-02-12T09:03:06;103080.75;;;7.57;100.00
16255;BME280;8235;52.198;9.904;2023-02-12T09:05:37;103075.44;;;7.60;100.00
16255;BME280;8235;52.198;9.904;2023-02-12T09:08:04;103074.53;;;7.61;100.00
16255;BME280;8235;52.198;9.904;2023-02-12T09:10:30;103083.34;;;7.65;100.00
16255;BME280;8235;52.198;9.904;2023-02-12T09:12:57;103084.19;;;7.69;100.00
16255;BME280;8235;52.198;9.904;2023-02-12T09:15:23;103090.31;;;7.71;100.00
16255;BME280;8235;52.198;9.904;2023-02-12T09:17:49;103088.53;;;7.73;100.00
16255;BME280;8235;52.198;9.904;2023-02-12T09:20:16;103089.38;;;7.75;100.00
16255;BME280;8235;52.198;9.904;2023-02-12T09:22:44;103092.91;;;7.77;100.00
16255;BME280;8235;52.198;9.904;2023-02-12T09:25:10;103090.22;;;7.78;100.00
16255;BME280;8235;52.198;9.904;2023-02-12T09:27:37;103090.22;;;7.80;100.00
16255;BME280;8235;52.198;9.904;2023-02-12T09:30:04;103090.16;;;7.84;100.00
16255;BME280;8235;52.198;9.904;2023-02-12T09:32:31;103094.56;;;7.87;100.00
16255;BME280;8235;52.198;9.904;2023-02-12T09:35:02;103105.97;;;7.90;100.00
16255;BME280;8235;52.198;9.904;2023-02-12T09:37:28;103098.88;;;7.94;100.00
16255;BME280;8235;52.198;9.904;2023-02-12T09:39:56;103102.38;;;7.97;100.00
16255;BME280;8235;52.198;9.904;2023-02-12T09:42:31;103103.19;;;8.02;100.00
16255;BME280;8235;52.198;9.904;2023-02-12T09:45:06;103104.88;;;8.07;100.00
16255;BME280;8235;52.198;9.904;2023-02-12T09:47:41;103110.13;;;8.11;100.00
16255;BME280;8235;52.198;9.904;2023-02-12T09:50:26;103107.44;;;8.14;100.00
16255;BME280;8235;52.198;9.904;2023-02-12T09:52:55;103114.47;;;8.18;100.00
16255;BME280;8235;52.198;9.904;2023-02-12T09:55:26;103106.47;;;8.21;100.00
16255;BME280;8235;52.198;9.904;2023-02-12T09:57:54;103109.03;;;8.24;100.00
16255;BME280;8235;52.198;9.904;2023-02-12T10:00:24;103106.34;;;8.27;100.00
16255;BME280;8235;52.198;9.904;2023-02-12T10:02:56;103101.00;;;8.30;100.00
16255;BME280;8235;52.198;9.904;2023-02-12T10:05:28;103107.19;;;8.34;100.00
16255;BME280;8235;52.198;9.904;2023-02-12T10:08:19;103112.44;;;8.37;100.00
16255;BME280;8235;52.198;9.904;2023-02-12T10:10:57;103111.53;;;8.40;100.00
16255;BME280;8235;52.198;9.904;2023-02-12T10:13:35;103119.44;;;8.43;100.00
16255;BME280;8235;52.198;9.904;2023-02-12T10:16:31;103115.84;;;8.45;100.00
16255;BME280;8235;52.198;9.904;2023-02-12T10:19:14;103120.22;;;8.49;100.00
16255;BME280;8235;52.198;9.904;2023-02-12T10:21:54;103118.44;;;8.50;100.00
16255;BME280;8235;52.198;9.904;2023-02-12T10:24:38;103118.41;;;8.53;100.00
16255;BME280;8235;52.198;9.904;2023-02-12T10:27:14;103125.47;;;8.54;100.00
16255;BME280;8235;52.198;9.904;2023-02-12T10:29:42;103117.50;;;8.54;100.00
16255;BME280;8235;52.198;9.904;2023-02-12T10:32:15;103116.56;;;8.58;100.00
16255;BME280;8235;52.198;9.904;2023-02-12T10:34:43;103127.97;;;8.63;100.00
16255;BME280;8235;52.198;9.904;2023-02-12T10:37:18;103120.84;;;8.65;100.00
16255;BME280;8235;52.198;9.904;2023-02-12T10:39:51;103117.22;;;8.70;100.00
16255;BME280;8235;52.198;9.904;2023-02-12T10:42:28;103115.38;;;8.76;100.00
16255;BME280;8235;52.198;9.904;2023-02-12T10:44:57;103123.25;;;8.80;100.00
16255;BME280;8235;52.198;9.904;2023-02-12T10:47:24;103117.91;;;8.83;100.00
16255;BME280;8235;52.198;9.904;2023-02-12T10:49:55;103114.31;;;8.86;100.00
16255;BME280;8235;52.198;9.904;2023-02-12T10:52:34;103118.72;;;8.87;100.00
16255;BME280;8235;52.198;9.904;2023-02-12T10:55:22;103116.06;;;8.88;100.00
16255;BME280;8235;52.198;9.904;2023-02-12T10:57:50;103111.59;;;8.89;100.00
16255;BME280;8235;52.198;9.904;2023-02-12T11:00:24;103119.53;;;8.92;100.00
16255;BME280;8235;52.198;9.904;2023-02-12T11:03:03;103121.28;;;8.94;100.00
16255;BME280;8235;52.198;9.904;2023-02-12T11:05:31;103119.44;;;8.96;100.00
16255;BME280;8235;52.198;9.904;2023-02-12T11:07:58;103107.88;;;8.99;100.00
16255;BME280;8235;52.198;9.904;2023-02-12T11:10:27;103110.47;;;9.03;100.00
16255;BME280;8235;52.198;9.904;2023-02-12T11:12:55;103107.75;;;9.07;100.00
16255;BME280;8235;52.198;9.904;2023-02-12T11:15:23;103105.03;;;9.11;100.00
16255;BME280;8235;52.198;9.904;2023-02-12T11:17:55;103109.34;;;9.15;100.00
16255;BME280;8235;52.198;9.904;2023-02-12T11:20:25;103111.09;;;9.18;100.00
16255;BME280;8235;52.198;9.904;2023-02-12T11:22:55;103106.66;;;9.18;99.70
16255;BME280;8235;52.198;9.904;2023-02-12T11:25:23;103106.63;;;9.20;99.74
16255;BME280;8235;52.198;9.904;2023-02-12T11:28:13;103105.72;;;9.21;98.95
16255;BME280;8235;52.198;9.904;2023-02-12T11:30:52;103107.50;;;9.20;99.30
16255;BME280;8235;52.198;9.904;2023-02-12T11:33:26;103104.84;;;9.20;98.37
16255;BME280;8235;52.198;9.904;2023-02-12T11:35:55;103105.72;;;9.21;98.55
16255;BME280;8235;52.198;9.904;2023-02-12T11:38:25;103098.63;;;9.20;97.52
16255;BME280;8235;52.198;9.904;2023-02-12T11:40:57;103098.63;;;9.20;97.47
16255;BME280;8235;52.198;9.904;2023-02-12T11:43:26;103102.22;;;9.17;96.80
16255;BME280;8235;52.198;9.904;2023-02-12T11:45:54;103091.59;;;9.17;97.01
16255;BME280;8235;52.198;9.904;2023-02-12T11:48:24;103090.66;;;9.20;96.87
16255;BME280;8235;52.198;9.904;2023-02-12T11:50:54;103083.53;;;9.22;96.29
16255;BME280;8235;52.198;9.904;2023-02-12T11:53:24;103079.94;;;9.24;96.04
16255;BME280;8235;52.198;9.904;2023-02-12T11:55:57;103075.44;;;9.29;96.44
16255;BME280;8235;52.198;9.904;2023-02-12T11:58:27;103076.28;;;9.31;95.82
16255;BME280;8235;52.198;9.904;2023-02-12T12:01:00;103074.47;;;9.32;95.40
16255;BME280;8235;52.198;9.904;2023-02-12T12:03:33;103075.34;;;9.32;95.04
16255;BME280;8235;52.198;9.904;2023-02-12T12:06:06;103067.34;;;9.34;94.95
16255;BME280;8235;52.198;9.904;2023-02-12T12:08:38;103072.59;;;9.37;94.47
16255;BME280;8235;52.198;9.904;2023-02-12T12:11:10;103070.78;;;9.39;93.98
16255;BME280;8235;52.198;9.904;2023-02-12T12:13:43;103070.72;;;9.42;93.94
16255;BME280;8235;52.198;9.904;2023-02-12T12:16:16;103076.00;;;9.45;94.08
16255;BME280;8235;52.198;9.904;2023-02-12T12:19:05;103071.53;;;9.47;93.17
16255;BME280;8235;52.198;9.904;2023-02-12T12:21:57;103079.41;;;9.50;93.16
16255;BME280;8235;52.198;9.904;2023-02-12T12:24:33;103076.72;;;9.52;93.00
16255;BME280;8235;52.198;9.904;2023-02-12T12:27:09;103071.38;;;9.53;92.91
16255;BME280;8235;52.198;9.904;2023-02-12T12:29:54;103078.44;;;9.56;92.59
16255;BME280;8235;52.198;9.904;2023-02-12T12:32:25;103076.63;;;9.58;92.54
16255;BME280;8235;52.198;9.904;2023-02-12T12:34:54;103083.72;;;9.57;92.70
16255;BME280;8235;52.198;9.904;2023-02-12T12:37:31;103079.31;;;9.56;92.20
16255;BME280;8235;52.198;9.904;2023-02-12T12:40:15;103074.81;;;9.60;92.07
16255;BME280;8235;52.198;9.904;2023-02-12T12:43:02;103066.78;;;9.61;91.92
16255;BME280;8235;52.198;9.904;2023-02-12T12:45:49;103065.91;;;9.61;91.49
16255;BME280;8235;52.198;9.904;2023-02-12T12:48:28;103056.22;;;9.58;91.80
16255;BME280;8235;52.198;9.904;2023-02-12T12:51:08;103056.22;;;9.58;91.29
16255;BME280;8235;52.198;9.904;2023-02-12T12:53:50;103053.56;;;9.58;91.10
16255;BME280;8235;52.198;9.904;2023-02-12T12:56:29;103050.00;;;9.58;91.84
16255;BME280;8235;52.198;9.904;2023-02-12T12:59:20;103055.28;;;9.61;91.83
16255;BME280;8235;52.198;9.904;2023-02-12T13:02:04;103052.59;;;9.62;91.46
16255;BME280;8235;52.198;9.904;2023-02-12T13:04:54;103045.47;;;9.63;91.56
16255;BME280;8235;52.198;9.904;2023-02-12T13:07:41;103051.69;;;9.63;91.70
16255;BME280;8235;52.198;9.904;2023-02-12T13:10:18;103041.94;;;9.62;91.14
16255;BME280;8235;52.198;9.904;2023-02-12T13:13:08;103044.59;;;9.62;91.42
16255;BME280;8235;52.198;9.904;2023-02-12T13:15:44;103039.34;;;9.59;91.10
16255;BME280;8235;52.198;9.904;2023-02-12T13:18:25;103034.94;;;9.58;91.77
16255;BME280;8235;52.198;9.904;2023-02-12T13:21:03;103032.22;;;9.60;91.62
16255;BME280;8235;52.198;9.904;2023-02-12T13:23:38;103036.66;;;9.61;91.08
16255;BME280;8235;52.198;9.904;2023-02-12T13:26:13;103028.69;;;9.59;91.06